RPC240 RPVI-RPVD
Flight info
| Callsign | RPC240 |
|---|---|
| Flight time | 1h 7m |
| Altitude | 5500 |
| Route | VFR |
| Aircraft | C152/L-SDF/C |
Departure
| Time | 2026-04-23 02:22 |
|---|---|
| Airport | Iloilo International Airport (RPVI) |
Arrival
| Time | 2026-04-23 03:29 |
|---|---|
| Airport | Sibulan Airport (RPVD) |
| Time | Latitude | Longitude | Altitude | Speed | Heading |
|---|---|---|---|---|---|
| 2026-04-23 02:10 | 10.83465 | 122.49817 | 134 ft | 0 kts | 201° |
| 2026-04-23 02:16 | 10.83445 | 122.49812 | 132 ft | 7 kts | 197° |
| 2026-04-23 02:17 | 10.83434 | 122.49769 | 132 ft | 11 kts | 292° |
| 2026-04-23 02:17 | 10.83462 | 122.49698 | 134 ft | 10 kts | 282° |
| 2026-04-23 02:17 | 10.83398 | 122.49664 | 134 ft | 13 kts | 198° |
| 2026-04-23 02:17 | 10.83288 | 122.49624 | 134 ft | 20 kts | 200° |
| 2026-04-23 02:18 | 10.83151 | 122.49572 | 134 ft | 22 kts | 200° |
| 2026-04-23 02:18 | 10.83035 | 122.49518 | 134 ft | 15 kts | 237° |
| 2026-04-23 02:18 | 10.83052 | 122.49404 | 134 ft | 19 kts | 292° |
| 2026-04-23 02:18 | 10.83087 | 122.49300 | 135 ft | 14 kts | 277° |
| 2026-04-23 02:19 | 10.83006 | 122.49228 | 134 ft | 20 kts | 200° |
| 2026-04-23 02:19 | 10.82861 | 122.49173 | 135 ft | 24 kts | 200° |
| 2026-04-23 02:19 | 10.82691 | 122.49110 | 134 ft | 26 kts | 199° |
| 2026-04-23 02:19 | 10.82537 | 122.49054 | 136 ft | 23 kts | 200° |
| 2026-04-23 02:20 | 10.82389 | 122.48999 | 141 ft | 22 kts | 201° |
| 2026-04-23 02:20 | 10.82285 | 122.48947 | 137 ft | 13 kts | 204° |
| 2026-04-23 02:20 | 10.82282 | 122.48958 | 137 ft | 0 kts | 20° |
| 2026-04-23 02:21 | 10.82435 | 122.49016 | 136 ft | 48 kts | 19° |
| 2026-04-23 02:21 | 10.82827 | 122.49160 | 204 ft | 69 kts | 22° |
| 2026-04-23 02:21 | 10.83324 | 122.49347 | 312 ft | 81 kts | 22° |
| 2026-04-23 02:21 | 10.83860 | 122.49540 | 489 ft | 82 kts | 24° |
| 2026-04-23 02:22 | 10.84367 | 122.49779 | 629 ft | 78 kts | 38° |
| 2026-04-23 02:22 | 10.84644 | 122.50262 | 681 ft | 85 kts | 75° |
| 2026-04-23 02:22 | 10.84586 | 122.50878 | 775 ft | 93 kts | 104° |
| 2026-04-23 02:22 | 10.84216 | 122.51445 | 864 ft | 99 kts | 124° |
| 2026-04-23 02:23 | 10.83725 | 122.51943 | 946 ft | 98 kts | 129° |
| 2026-04-23 02:23 | 10.83196 | 122.52383 | 1015 ft | 101 kts | 146° |
| 2026-04-23 02:23 | 10.82507 | 122.52521 | 1119 ft | 105 kts | 181° |
| 2026-04-23 02:23 | 10.81771 | 122.52475 | 1164 ft | 105 kts | 180° |
| 2026-04-23 02:24 | 10.81053 | 122.52493 | 1243 ft | 101 kts | 169° |
| 2026-04-23 02:24 | 10.80327 | 122.52580 | 1262 ft | 109 kts | 169° |
| 2026-04-23 02:24 | 10.79585 | 122.52634 | 1388 ft | 106 kts | 170° |
| 2026-04-23 02:24 | 10.78845 | 122.52689 | 1478 ft | 107 kts | 172° |
| 2026-04-23 02:25 | 10.78101 | 122.52760 | 1545 ft | 106 kts | 171° |
| 2026-04-23 02:25 | 10.77361 | 122.52853 | 1537 ft | 110 kts | 169° |
| 2026-04-23 02:25 | 10.76612 | 122.52942 | 1464 ft | 105 kts | 169° |
| 2026-04-23 02:25 | 10.75895 | 122.53049 | 1476 ft | 106 kts | 165° |
| 2026-04-23 02:26 | 10.75144 | 122.53159 | 1510 ft | 111 kts | 166° |
| 2026-04-23 02:26 | 10.74395 | 122.53297 | 1461 ft | 107 kts | 155° |
| 2026-04-23 02:26 | 10.73738 | 122.53592 | 1488 ft | 100 kts | 147° |
| 2026-04-23 02:26 | 10.73138 | 122.53914 | 1536 ft | 98 kts | 144° |
| 2026-04-23 02:27 | 10.72554 | 122.54264 | 1618 ft | 95 kts | 139° |
| 2026-04-23 02:27 | 10.72007 | 122.54640 | 1695 ft | 94 kts | 137° |
| 2026-04-23 02:27 | 10.71488 | 122.55021 | 1793 ft | 94 kts | 134° |
| 2026-04-23 02:27 | 10.70979 | 122.55439 | 1897 ft | 93 kts | 131° |
| 2026-04-23 02:28 | 10.70501 | 122.55891 | 1977 ft | 95 kts | 127° |
| 2026-04-23 02:28 | 10.70043 | 122.56363 | 2040 ft | 94 kts | 126° |
| 2026-04-23 02:28 | 10.69611 | 122.56868 | 2170 ft | 94 kts | 126° |
| 2026-04-23 02:28 | 10.69197 | 122.57371 | 2315 ft | 93 kts | 126° |
| 2026-04-23 02:29 | 10.68659 | 122.57782 | 2369 ft | 100 kts | 143° |
| 2026-04-23 02:29 | 10.68081 | 122.58163 | 2403 ft | 98 kts | 141° |
| 2026-04-23 02:29 | 10.67536 | 122.58572 | 2404 ft | 100 kts | 135° |
| 2026-04-23 02:29 | 10.67009 | 122.59014 | 2439 ft | 96 kts | 136° |
| 2026-04-23 02:30 | 10.66511 | 122.59429 | 2440 ft | 91 kts | 137° |
| 2026-04-23 02:30 | 10.66033 | 122.59841 | 2501 ft | 91 kts | 134° |
| 2026-04-23 02:30 | 10.65580 | 122.60292 | 2575 ft | 91 kts | 129° |
| 2026-04-23 02:30 | 10.65138 | 122.60752 | 2649 ft | 91 kts | 128° |
| 2026-04-23 02:31 | 10.64723 | 122.61228 | 2726 ft | 89 kts | 123° |
| 2026-04-23 02:31 | 10.64341 | 122.61719 | 2758 ft | 89 kts | 120° |
| 2026-04-23 02:31 | 10.63956 | 122.62223 | 2834 ft | 90 kts | 122° |
| 2026-04-23 02:31 | 10.63595 | 122.62722 | 2940 ft | 87 kts | 123° |
| 2026-04-23 02:32 | 10.63279 | 122.63246 | 3011 ft | 88 kts | 113° |
| 2026-04-23 02:32 | 10.63008 | 122.63810 | 3127 ft | 90 kts | 117° |
| 2026-04-23 02:32 | 10.62635 | 122.64315 | 3199 ft | 90 kts | 132° |
| 2026-04-23 02:32 | 10.62156 | 122.64722 | 3247 ft | 89 kts | 140° |
| 2026-04-23 02:33 | 10.61661 | 122.65091 | 3305 ft | 88 kts | 141° |
| 2026-04-23 02:33 | 10.61149 | 122.65430 | 3367 ft | 88 kts | 143° |
| 2026-04-23 02:33 | 10.60627 | 122.65768 | 3437 ft | 91 kts | 144° |
| 2026-04-23 02:33 | 10.60083 | 122.66110 | 3511 ft | 91 kts | 144° |
| 2026-04-23 02:34 | 10.59553 | 122.66445 | 3584 ft | 89 kts | 144° |
| 2026-04-23 02:34 | 10.59031 | 122.66776 | 3653 ft | 88 kts | 144° |
| 2026-04-23 02:34 | 10.58512 | 122.67102 | 3724 ft | 88 kts | 148° |
| 2026-04-23 02:34 | 10.57960 | 122.67380 | 3805 ft | 90 kts | 149° |
| 2026-04-23 02:35 | 10.57383 | 122.67677 | 3875 ft | 94 kts | 149° |
| 2026-04-23 02:35 | 10.56806 | 122.67972 | 3951 ft | 92 kts | 149° |
| 2026-04-23 02:35 | 10.56232 | 122.68271 | 4020 ft | 92 kts | 149° |
| 2026-04-23 02:35 | 10.55663 | 122.68565 | 4093 ft | 92 kts | 149° |
| 2026-04-23 02:36 | 10.55091 | 122.68853 | 4163 ft | 92 kts | 149° |
| 2026-04-23 02:36 | 10.54514 | 122.69147 | 4242 ft | 95 kts | 149° |
| 2026-04-23 02:36 | 10.53926 | 122.69453 | 4318 ft | 96 kts | 149° |
| 2026-04-23 02:36 | 10.53341 | 122.69754 | 4394 ft | 92 kts | 149° |
| 2026-04-23 02:37 | 10.52775 | 122.70037 | 4457 ft | 89 kts | 149° |
| 2026-04-23 02:37 | 10.52221 | 122.70312 | 4526 ft | 88 kts | 149° |
| 2026-04-23 02:37 | 10.51680 | 122.70583 | 4596 ft | 86 kts | 149° |
| 2026-04-23 02:37 | 10.51144 | 122.70857 | 4666 ft | 86 kts | 148° |
| 2026-04-23 02:38 | 10.50627 | 122.71155 | 4733 ft | 85 kts | 146° |
| 2026-04-23 02:38 | 10.50107 | 122.71455 | 4802 ft | 86 kts | 146° |
| 2026-04-23 02:38 | 10.49578 | 122.71767 | 4853 ft | 91 kts | 146° |
| 2026-04-23 02:38 | 10.49022 | 122.72078 | 4910 ft | 92 kts | 149° |
| 2026-04-23 02:39 | 10.48446 | 122.72373 | 4965 ft | 93 kts | 148° |
| 2026-04-23 02:39 | 10.47877 | 122.72656 | 5015 ft | 92 kts | 149° |
| 2026-04-23 02:39 | 10.47302 | 122.72939 | 5063 ft | 91 kts | 149° |
| 2026-04-23 02:39 | 10.46730 | 122.73220 | 5111 ft | 91 kts | 149° |
| 2026-04-23 02:40 | 10.46158 | 122.73502 | 5163 ft | 92 kts | 149° |
| 2026-04-23 02:40 | 10.45583 | 122.73786 | 5214 ft | 92 kts | 149° |
| 2026-04-23 02:40 | 10.45009 | 122.74070 | 5259 ft | 92 kts | 149° |
| 2026-04-23 02:40 | 10.44436 | 122.74354 | 5306 ft | 92 kts | 149° |
| 2026-04-23 02:41 | 10.43863 | 122.74638 | 5351 ft | 91 kts | 149° |
| 2026-04-23 02:41 | 10.43297 | 122.74922 | 5398 ft | 90 kts | 149° |
| 2026-04-23 02:41 | 10.42736 | 122.75203 | 5445 ft | 90 kts | 149° |
| 2026-04-23 02:41 | 10.42180 | 122.75484 | 5489 ft | 90 kts | 149° |
| 2026-04-23 02:42 | 10.41609 | 122.75774 | 5490 ft | 93 kts | 149° |
| 2026-04-23 02:42 | 10.41023 | 122.76073 | 5494 ft | 95 kts | 149° |
| 2026-04-23 02:42 | 10.40430 | 122.76376 | 5497 ft | 96 kts | 149° |
| 2026-04-23 02:42 | 10.39834 | 122.76682 | 5499 ft | 96 kts | 149° |
| 2026-04-23 02:43 | 10.39236 | 122.76989 | 5502 ft | 97 kts | 149° |
| 2026-04-23 02:43 | 10.38635 | 122.77297 | 5503 ft | 97 kts | 149° |
| 2026-04-23 02:43 | 10.38034 | 122.77606 | 5503 ft | 96 kts | 149° |
| 2026-04-23 02:43 | 10.37442 | 122.77909 | 5501 ft | 94 kts | 149° |
| 2026-04-23 02:44 | 10.36856 | 122.78209 | 5499 ft | 94 kts | 149° |
| 2026-04-23 02:44 | 10.36275 | 122.78506 | 5498 ft | 93 kts | 149° |
| 2026-04-23 02:44 | 10.35694 | 122.78802 | 5497 ft | 93 kts | 149° |
| 2026-04-23 02:44 | 10.35113 | 122.79099 | 5497 ft | 94 kts | 149° |
| 2026-04-23 02:45 | 10.34728 | 122.79296 | 5495 ft | 94 kts | 149° |
| 2026-04-23 02:45 | 10.33949 | 122.79695 | 5496 ft | 94 kts | 149° |
| 2026-04-23 02:45 | 10.33562 | 122.79892 | 5497 ft | 94 kts | 149° |
| 2026-04-23 02:45 | 10.32974 | 122.80193 | 5498 ft | 95 kts | 149° |
| 2026-04-23 02:46 | 10.32382 | 122.80496 | 5500 ft | 95 kts | 149° |
| 2026-04-23 02:46 | 10.31791 | 122.80799 | 5501 ft | 96 kts | 149° |
| 2026-04-23 02:46 | 10.31197 | 122.81104 | 5500 ft | 96 kts | 149° |
| 2026-04-23 02:46 | 10.30606 | 122.81411 | 5501 ft | 95 kts | 149° |
| 2026-04-23 02:47 | 10.30015 | 122.81718 | 5500 ft | 95 kts | 149° |
| 2026-04-23 02:47 | 10.29427 | 122.82025 | 5500 ft | 95 kts | 149° |
| 2026-04-23 02:47 | 10.28839 | 122.82331 | 5500 ft | 95 kts | 149° |
| 2026-04-23 02:47 | 10.28245 | 122.82632 | 5500 ft | 96 kts | 151° |
| 2026-04-23 02:48 | 10.27638 | 122.82917 | 5499 ft | 96 kts | 151° |
| 2026-04-23 02:48 | 10.27034 | 122.83208 | 5498 ft | 96 kts | 149° |
| 2026-04-23 02:48 | 10.26440 | 122.83513 | 5498 ft | 96 kts | 149° |
| 2026-04-23 02:48 | 10.25846 | 122.83818 | 5503 ft | 95 kts | 149° |
| 2026-04-23 02:49 | 10.25254 | 122.84121 | 5504 ft | 95 kts | 149° |
| 2026-04-23 02:49 | 10.24663 | 122.84424 | 5503 ft | 95 kts | 149° |
| 2026-04-23 02:49 | 10.24068 | 122.84729 | 5506 ft | 98 kts | 149° |
| 2026-04-23 02:49 | 10.23463 | 122.85042 | 5503 ft | 96 kts | 149° |
| 2026-04-23 02:50 | 10.22860 | 122.85354 | 5510 ft | 99 kts | 149° |
| 2026-04-23 02:50 | 10.22236 | 122.85677 | 5507 ft | 100 kts | 149° |
| 2026-04-23 02:50 | 10.21625 | 122.85992 | 5504 ft | 99 kts | 149° |
| 2026-04-23 02:50 | 10.21012 | 122.86305 | 5505 ft | 100 kts | 149° |
| 2026-04-23 02:51 | 10.20404 | 122.86617 | 5501 ft | 96 kts | 149° |
| 2026-04-23 02:51 | 10.19799 | 122.86927 | 5505 ft | 99 kts | 149° |
| 2026-04-23 02:51 | 10.19185 | 122.87242 | 5499 ft | 97 kts | 149° |
| 2026-04-23 02:51 | 10.18588 | 122.87549 | 5496 ft | 95 kts | 149° |
| 2026-04-23 02:52 | 10.17995 | 122.87852 | 5503 ft | 97 kts | 149° |
| 2026-04-23 02:52 | 10.17385 | 122.88164 | 5499 ft | 98 kts | 149° |
| 2026-04-23 02:52 | 10.16779 | 122.88475 | 5507 ft | 99 kts | 149° |
| 2026-04-23 02:52 | 10.16162 | 122.88793 | 5503 ft | 99 kts | 149° |
| 2026-04-23 02:53 | 10.15556 | 122.89103 | 5493 ft | 97 kts | 149° |
| 2026-04-23 02:53 | 10.14953 | 122.89399 | 5491 ft | 96 kts | 150° |
| 2026-04-23 02:53 | 10.14358 | 122.89705 | 5489 ft | 96 kts | 148° |
| 2026-04-23 02:53 | 10.13761 | 122.89996 | 5489 ft | 95 kts | 150° |
| 2026-04-23 02:54 | 10.13160 | 122.90307 | 5496 ft | 99 kts | 149° |
| 2026-04-23 02:54 | 10.12547 | 122.90624 | 5499 ft | 98 kts | 149° |
| 2026-04-23 02:54 | 10.11934 | 122.90934 | 5500 ft | 99 kts | 149° |
| 2026-04-23 02:54 | 10.11334 | 122.91250 | 5496 ft | 98 kts | 149° |
| 2026-04-23 02:55 | 10.10732 | 122.91576 | 5497 ft | 98 kts | 149° |
| 2026-04-23 02:55 | 10.10132 | 122.91905 | 5499 ft | 97 kts | 148° |
| 2026-04-23 02:55 | 10.09524 | 122.92222 | 5497 ft | 98 kts | 148° |
| 2026-04-23 02:55 | 10.08915 | 122.92530 | 5500 ft | 99 kts | 149° |
| 2026-04-23 02:56 | 10.08306 | 122.92846 | 5493 ft | 97 kts | 149° |
| 2026-04-23 02:56 | 10.07707 | 122.93150 | 5498 ft | 97 kts | 148° |
| 2026-04-23 02:56 | 10.07098 | 122.93444 | 5493 ft | 96 kts | 149° |
| 2026-04-23 02:56 | 10.06497 | 122.93733 | 5494 ft | 96 kts | 149° |
| 2026-04-23 02:57 | 10.05894 | 122.94033 | 5497 ft | 97 kts | 148° |
| 2026-04-23 02:57 | 10.05291 | 122.94339 | 5495 ft | 96 kts | 148° |
| 2026-04-23 02:57 | 10.04691 | 122.94646 | 5502 ft | 98 kts | 149° |
| 2026-04-23 02:57 | 10.04069 | 122.94952 | 5502 ft | 100 kts | 150° |
| 2026-04-23 02:58 | 10.03456 | 122.95273 | 5501 ft | 98 kts | 148° |
| 2026-04-23 02:58 | 10.02847 | 122.95581 | 5502 ft | 98 kts | 150° |
| 2026-04-23 02:58 | 10.02231 | 122.95900 | 5507 ft | 101 kts | 149° |
| 2026-04-23 02:58 | 10.01611 | 122.96231 | 5506 ft | 99 kts | 149° |
| 2026-04-23 02:59 | 10.01004 | 122.96538 | 5506 ft | 96 kts | 150° |
| 2026-04-23 02:59 | 10.00408 | 122.96854 | 5504 ft | 98 kts | 149° |
| 2026-04-23 02:59 | 9.99805 | 122.97164 | 5507 ft | 99 kts | 149° |
| 2026-04-23 02:59 | 9.99179 | 122.97485 | 5508 ft | 101 kts | 149° |
| 2026-04-23 03:00 | 9.98560 | 122.97790 | 5502 ft | 95 kts | 149° |
| 2026-04-23 03:00 | 9.97970 | 122.98085 | 5507 ft | 96 kts | 150° |
| 2026-04-23 03:00 | 9.97370 | 122.98398 | 5512 ft | 99 kts | 149° |
| 2026-04-23 03:00 | 9.96749 | 122.98725 | 5501 ft | 102 kts | 148° |
| 2026-04-23 03:01 | 9.96107 | 122.99047 | 5435 ft | 104 kts | 149° |
| 2026-04-23 03:01 | 9.95463 | 122.99381 | 5363 ft | 105 kts | 149° |
| 2026-04-23 03:01 | 9.94819 | 122.99733 | 5294 ft | 106 kts | 149° |
| 2026-04-23 03:01 | 9.94174 | 123.00088 | 5221 ft | 105 kts | 148° |
| 2026-04-23 03:02 | 9.93535 | 123.00427 | 5150 ft | 103 kts | 148° |
| 2026-04-23 03:02 | 9.92901 | 123.00748 | 5075 ft | 101 kts | 152° |
| 2026-04-23 03:02 | 9.92257 | 123.01017 | 5024 ft | 100 kts | 150° |
| 2026-04-23 03:02 | 9.91677 | 123.01402 | 4985 ft | 98 kts | 137° |
| 2026-04-23 03:03 | 9.91234 | 123.01907 | 4907 ft | 97 kts | 125° |
| 2026-04-23 03:03 | 9.90721 | 123.02371 | 4795 ft | 101 kts | 138° |
| 2026-04-23 03:03 | 9.90170 | 123.02805 | 4716 ft | 99 kts | 136° |
| 2026-04-23 03:03 | 9.89664 | 123.03276 | 4667 ft | 98 kts | 133° |
| 2026-04-23 03:04 | 9.89179 | 123.03756 | 4636 ft | 99 kts | 131° |
| 2026-04-23 03:04 | 9.88691 | 123.04263 | 4599 ft | 101 kts | 131° |
| 2026-04-23 03:04 | 9.88215 | 123.04783 | 4590 ft | 99 kts | 128° |
| 2026-04-23 03:04 | 9.87778 | 123.05322 | 4532 ft | 98 kts | 125° |
| 2026-04-23 03:05 | 9.87342 | 123.05849 | 4433 ft | 96 kts | 127° |
| 2026-04-23 03:05 | 9.86931 | 123.06357 | 4334 ft | 92 kts | 124° |
| 2026-04-23 03:05 | 9.86509 | 123.06851 | 4282 ft | 92 kts | 125° |
| 2026-04-23 03:05 | 9.86092 | 123.07352 | 4241 ft | 94 kts | 127° |
| 2026-04-23 03:06 | 9.85682 | 123.07878 | 4198 ft | 97 kts | 124° |
| 2026-04-23 03:06 | 9.85262 | 123.08431 | 4148 ft | 99 kts | 123° |
| 2026-04-23 03:06 | 9.84876 | 123.09015 | 4087 ft | 99 kts | 118° |
| 2026-04-23 03:06 | 9.84486 | 123.09569 | 4061 ft | 98 kts | 130° |
| 2026-04-23 03:07 | 9.83977 | 123.10038 | 4004 ft | 99 kts | 139° |
| 2026-04-23 03:07 | 9.83384 | 123.10411 | 3924 ft | 103 kts | 150° |
| 2026-04-23 03:07 | 9.82729 | 123.10716 | 3856 ft | 104 kts | 154° |
| 2026-04-23 03:07 | 9.82064 | 123.10972 | 3858 ft | 101 kts | 155° |
| 2026-04-23 03:08 | 9.81422 | 123.11227 | 3844 ft | 98 kts | 153° |
| 2026-04-23 03:08 | 9.80778 | 123.11448 | 3828 ft | 99 kts | 158° |
| 2026-04-23 03:08 | 9.80115 | 123.11628 | 3755 ft | 100 kts | 158° |
| 2026-04-23 03:08 | 9.79445 | 123.11847 | 3697 ft | 103 kts | 156° |
| 2026-04-23 03:09 | 9.78751 | 123.12079 | 3667 ft | 107 kts | 157° |
| 2026-04-23 03:09 | 9.78044 | 123.12303 | 3645 ft | 106 kts | 158° |
| 2026-04-23 03:09 | 9.77342 | 123.12510 | 3610 ft | 104 kts | 159° |
| 2026-04-23 03:09 | 9.76652 | 123.12717 | 3600 ft | 102 kts | 159° |
| 2026-04-23 03:10 | 9.75998 | 123.12954 | 3615 ft | 98 kts | 160° |
| 2026-04-23 03:10 | 9.75331 | 123.13105 | 3576 ft | 99 kts | 167° |
| 2026-04-23 03:10 | 9.74646 | 123.13174 | 3527 ft | 99 kts | 169° |
| 2026-04-23 03:10 | 9.73963 | 123.13250 | 3509 ft | 98 kts | 168° |
| 2026-04-23 03:11 | 9.73294 | 123.13360 | 3479 ft | 98 kts | 165° |
| 2026-04-23 03:11 | 9.72595 | 123.13408 | 3448 ft | 103 kts | 171° |
| 2026-04-23 03:11 | 9.71884 | 123.13432 | 3493 ft | 102 kts | 174° |
| 2026-04-23 03:11 | 9.71171 | 123.13507 | 3495 ft | 103 kts | 168° |
| 2026-04-23 03:12 | 9.70473 | 123.13626 | 3548 ft | 98 kts | 161° |
| 2026-04-23 03:12 | 9.69810 | 123.13775 | 3607 ft | 98 kts | 163° |
| 2026-04-23 03:12 | 9.69134 | 123.13888 | 3613 ft | 101 kts | 166° |
| 2026-04-23 03:12 | 9.68442 | 123.14018 | 3606 ft | 102 kts | 164° |
| 2026-04-23 03:13 | 9.67721 | 123.14073 | 3557 ft | 104 kts | 171° |
| 2026-04-23 03:13 | 9.67005 | 123.14116 | 3545 ft | 101 kts | 169° |
| 2026-04-23 03:13 | 9.66315 | 123.14201 | 3554 ft | 99 kts | 165° |
| 2026-04-23 03:13 | 9.65636 | 123.14336 | 3541 ft | 100 kts | 163° |
| 2026-04-23 03:14 | 9.64958 | 123.14482 | 3517 ft | 99 kts | 162° |
| 2026-04-23 03:14 | 9.64285 | 123.14620 | 3500 ft | 99 kts | 162° |
| 2026-04-23 03:14 | 9.63609 | 123.14744 | 3472 ft | 99 kts | 165° |
| 2026-04-23 03:14 | 9.62937 | 123.14888 | 3452 ft | 98 kts | 163° |
| 2026-04-23 03:15 | 9.62272 | 123.15018 | 3380 ft | 98 kts | 166° |
| 2026-04-23 03:15 | 9.61602 | 123.15156 | 3296 ft | 98 kts | 162° |
| 2026-04-23 03:15 | 9.60940 | 123.15321 | 3213 ft | 98 kts | 162° |
| 2026-04-23 03:15 | 9.60280 | 123.15476 | 3130 ft | 96 kts | 161° |
| 2026-04-23 03:16 | 9.59640 | 123.15618 | 3049 ft | 95 kts | 161° |
| 2026-04-23 03:16 | 9.58990 | 123.15760 | 2947 ft | 96 kts | 162° |
| 2026-04-23 03:16 | 9.57662 | 123.16071 | 2727 ft | 98 kts | 163° |
| 2026-04-23 03:17 | 9.57017 | 123.16244 | 2626 ft | 97 kts | 160° |
| 2026-04-23 03:17 | 9.56382 | 123.16452 | 2529 ft | 96 kts | 159° |
| 2026-04-23 03:17 | 9.55750 | 123.16664 | 2469 ft | 96 kts | 158° |
| 2026-04-23 03:17 | 9.55133 | 123.16918 | 2447 ft | 96 kts | 152° |
| 2026-04-23 03:18 | 9.54537 | 123.17209 | 2439 ft | 95 kts | 149° |
| 2026-04-23 03:18 | 9.53959 | 123.17527 | 2423 ft | 93 kts | 149° |
| 2026-04-23 03:18 | 9.53395 | 123.17819 | 2424 ft | 90 kts | 149° |
| 2026-04-23 03:18 | 9.52838 | 123.18100 | 2406 ft | 90 kts | 149° |
| 2026-04-23 03:19 | 9.52278 | 123.18382 | 2391 ft | 89 kts | 150° |
| 2026-04-23 03:19 | 9.51720 | 123.18661 | 2373 ft | 89 kts | 149° |
| 2026-04-23 03:19 | 9.51169 | 123.18978 | 2341 ft | 92 kts | 146° |
| 2026-04-23 03:19 | 9.50633 | 123.19308 | 2355 ft | 89 kts | 144° |
| 2026-04-23 03:20 | 9.50117 | 123.19647 | 2348 ft | 91 kts | 144° |
| 2026-04-23 03:20 | 9.49587 | 123.20007 | 2335 ft | 90 kts | 144° |
| 2026-04-23 03:20 | 9.49066 | 123.20363 | 2324 ft | 92 kts | 142° |
| 2026-04-23 03:20 | 9.48538 | 123.20731 | 2289 ft | 94 kts | 142° |
| 2026-04-23 03:21 | 9.47997 | 123.21098 | 2306 ft | 95 kts | 143° |
| 2026-04-23 03:21 | 9.47435 | 123.21458 | 2435 ft | 97 kts | 146° |
| 2026-04-23 03:21 | 9.46829 | 123.21810 | 2549 ft | 104 kts | 147° |
| 2026-04-23 03:21 | 9.46166 | 123.22197 | 2575 ft | 113 kts | 147° |
| 2026-04-23 03:22 | 9.45475 | 123.22594 | 2575 ft | 115 kts | 149° |
| 2026-04-23 03:22 | 9.44773 | 123.22972 | 2523 ft | 112 kts | 149° |
| 2026-04-23 03:22 | 9.44148 | 123.23341 | 2603 ft | 94 kts | 149° |
| 2026-04-23 03:22 | 9.44131 | 123.23350 | 2602 ft | 95 kts | 149° |
| 2026-04-23 03:23 | 9.43833 | 123.23505 | 2583 ft | 97 kts | 150° |
| 2026-04-23 03:24 | 9.43227 | 123.23802 | 2503 ft | 96 kts | 150° |
| 2026-04-23 03:24 | 9.42637 | 123.24056 | 2427 ft | 93 kts | 154° |
| 2026-04-23 03:24 | 9.42028 | 123.24294 | 2280 ft | 94 kts | 153° |
| 2026-04-23 03:24 | 9.41420 | 123.24517 | 2173 ft | 92 kts | 155° |
| 2026-04-23 03:25 | 9.40806 | 123.24711 | 2085 ft | 93 kts | 159° |
| 2026-04-23 03:25 | 9.40187 | 123.24899 | 2034 ft | 92 kts | 156° |
| 2026-04-23 03:25 | 9.39578 | 123.25080 | 1973 ft | 91 kts | 157° |
| 2026-04-23 03:25 | 9.38967 | 123.25259 | 1840 ft | 91 kts | 158° |
| 2026-04-23 03:26 | 9.38368 | 123.25447 | 1723 ft | 89 kts | 156° |
| 2026-04-23 03:26 | 9.37789 | 123.25658 | 1620 ft | 88 kts | 153° |
| 2026-04-23 03:26 | 9.37229 | 123.25889 | 1521 ft | 87 kts | 153° |
| 2026-04-23 03:26 | 9.36650 | 123.26101 | 1415 ft | 90 kts | 156° |
| 2026-04-23 03:27 | 9.36054 | 123.26308 | 1363 ft | 89 kts | 158° |
| 2026-04-23 03:27 | 9.35479 | 123.26512 | 1283 ft | 86 kts | 158° |
| 2026-04-23 03:27 | 9.34915 | 123.26716 | 1187 ft | 85 kts | 150° |
| 2026-04-23 03:27 | 9.34426 | 123.27048 | 1019 ft | 83 kts | 130° |
| 2026-04-23 03:28 | 9.34058 | 123.27477 | 881 ft | 78 kts | 121° |
| 2026-04-23 03:28 | 9.33776 | 123.27919 | 719 ft | 74 kts | 114° |
| 2026-04-23 03:28 | 9.33562 | 123.28408 | 551 ft | 79 kts | 98° |
| 2026-04-23 03:28 | 9.33492 | 123.28908 | 298 ft | 65 kts | 88° |
| 2026-04-23 03:29 | 9.33465 | 123.29353 | 169 ft | 63 kts | 82° |
| 2026-04-23 03:29 | 9.33445 | 123.29782 | 49 ft | 55 kts | 85° |
| 2026-04-23 03:29 | 9.33425 | 123.30100 | 36 ft | 38 kts | 93° |
| 2026-04-23 03:29 | 9.33420 | 123.30302 | 32 ft | 19 kts | 80° |
| 2026-04-23 03:30 | 9.33407 | 123.30326 | 32 ft | 10 kts | 283° |
| 2026-04-23 03:30 | 9.33417 | 123.30233 | 32 ft | 17 kts | 275° |
| 2026-04-23 03:30 | 9.33423 | 123.30109 | 35 ft | 18 kts | 272° |
| 2026-04-23 03:30 | 9.33427 | 123.30026 | 39 ft | 18 kts | 274° |
| 2026-04-23 03:31 | 9.33434 | 123.29892 | 42 ft | 20 kts | 274° |
| 2026-04-23 03:31 | 9.33442 | 123.29752 | 44 ft | 19 kts | 274° |
| 2026-04-23 03:31 | 9.33449 | 123.29619 | 42 ft | 18 kts | 272° |
| 2026-04-23 03:31 | 9.33455 | 123.29492 | 47 ft | 18 kts | 273° |
| 2026-04-23 03:32 | 9.33460 | 123.29382 | 47 ft | 9 kts | 262° |
| 2026-04-23 03:32 | 9.33420 | 123.29357 | 47 ft | 5 kts | 194° |
| 2026-04-23 03:32 | 9.33402 | 123.29365 | 46 ft | 0 kts | 89° |